Time;durP1;ratioP1;P1;durP2;ratioP2;P2;SDS_P1;SDS_P2;PMS_P1;PMS_P2;Temp;Humidity;BMP_temperature;BMP_pressure;BME280_temperature;BME280_humidity;BME280_pressure;Samples;Min_cycle;Max_cycle;Signal;HPM_P1;HPM_P2
2022/03/02 00:00:08;;;;;;;11.52;2.20;;;20.80;99.90;;;;;;6155976;23;20001;-72
2022/03/02 00:02:36;;;;;;;14.63;1.77;;;20.90;99.90;;;;;;6155948;23;20085;-72
2022/03/02 00:05:03;;;;;;;13.68;2.25;;;20.90;99.90;;;;;;6156047;23;20494;-72
2022/03/02 00:07:31;;;;;;;16.83;2.92;;;21.00;99.90;;;;;;6154018;23;20005;-72
2022/03/02 00:09:58;;;;;;;18.52;3.67;;;21.00;99.90;;;;;;6155935;23;20001;-72
2022/03/02 00:12:25;;;;;;;20.80;3.65;;;21.00;99.90;;;;;;6155931;23;20493;-72
2022/03/02 00:14:53;;;;;;;21.63;2.80;;;21.00;99.90;;;;;;6155897;23;20507;-74
2022/03/02 00:17:20;;;;;;;22.27;3.67;;;21.00;99.90;;;;;;6155776;23;19997;-72
2022/03/02 00:19:47;;;;;;;21.15;3.22;;;21.10;99.90;;;;;;6155739;23;20006;-72
2022/03/02 00:22:15;;;;;;;19.45;3.08;;;21.10;99.90;;;;;;6155725;23;20001;-73
2022/03/02 00:24:43;;;;;;;16.15;2.75;;;21.00;99.90;;;;;;6155616;23;20005;-73
2022/03/02 00:27:10;;;;;;;17.98;2.15;;;21.00;99.90;;;;;;6155777;23;19998;-73
2022/03/02 00:29:37;;;;;;;13.02;2.28;;;21.10;99.90;;;;;;6178834;23;20009;-73
2022/03/02 00:32:05;;;;;;;21.58;2.97;;;21.10;99.90;;;;;;6155627;23;20008;-73
2022/03/02 00:34:32;;;;;;;21.58;2.63;;;21.10;99.90;;;;;;6155778;23;20005;-74
2022/03/02 00:36:59;;;;;;;18.58;3.25;;;21.20;99.90;;;;;;6155694;23;20052;-74
2022/03/02 00:39:26;;;;;;;14.48;2.08;;;21.20;99.90;;;;;;6155608;23;20077;-74
2022/03/02 00:41:54;;;;;;;13.13;2.20;;;21.10;99.90;;;;;;6178693;23;20064;-74
2022/03/02 00:44:21;;;;;;;15.02;2.00;;;20.70;99.90;;;;;;6153979;23;20068;-74
2022/03/02 00:46:49;;;;;;;8.15;1.65;;;20.30;99.90;;;;;;6155148;23;20029;-72
2022/03/02 00:49:16;;;;;;;13.15;2.00;;;20.10;99.90;;;;;;6178239;23;20005;-72
2022/03/02 00:51:44;;;;;;;12.38;1.92;;;19.90;99.90;;;;;;6178596;23;20010;-73
2022/03/02 00:54:12;;;;;;;11.13;2.05;;;19.90;99.90;;;;;;6155381;23;20002;-73
2022/03/02 00:56:39;;;;;;;10.85;1.75;;;19.90;99.90;;;;;;6155530;23;20002;-72
2022/03/02 00:59:06;;;;;;;14.43;2.15;;;19.90;99.90;;;;;;6155892;23;20313;-72
2022/03/02 01:01:34;;;;;;;15.20;1.60;;;19.90;99.90;;;;;;6155536;23;20397;-72
2022/03/02 01:04:01;;;;;;;10.68;1.80;;;20.00;99.90;;;;;;6155368;23;20011;-72
2022/03/02 01:06:28;;;;;;;17.70;2.67;;;20.10;99.90;;;;;;6153725;23;20016;-72
2022/03/02 01:08:56;;;;;;;14.05;2.53;;;20.10;99.90;;;;;;6155244;23;20088;-73
2022/03/02 01:11:23;;;;;;;21.23;2.53;;;20.30;99.90;;;;;;6178559;23;20028;-72
2022/03/02 01:13:50;;;;;;;19.67;2.50;;;20.40;99.90;;;;;;6153622;23;20006;-70
2022/03/02 01:16:17;;;;;;;15.57;3.17;;;20.50;99.90;;;;;;6155438;23;20001;-72
2022/03/02 01:18:45;;;;;;;18.27;2.90;;;20.60;99.90;;;;;;6155238;23;20331;-72
2022/03/02 01:21:13;;;;;;;18.67;2.35;;;20.60;99.90;;;;;;6155413;23;20040;-72
2022/03/02 01:23:40;;;;;;;18.77;2.00;;;20.60;99.90;;;;;;6155400;23;20442;-72
2022/03/02 01:26:08;;;;;;;15.70;2.30;;;20.70;99.90;;;;;;6178551;23;20014;-72
2022/03/02 01:28:35;;;;;;;11.68;1.75;;;20.80;99.90;;;;;;6155305;23;20374;-72
2022/03/02 01:31:02;;;;;;;15.82;2.42;;;20.80;99.90;;;;;;6155381;23;20073;-72
2022/03/02 01:33:30;;;;;;;16.15;2.92;;;20.90;99.90;;;;;;6155295;23;20009;-73
2022/03/02 01:35:57;;;;;;;16.67;2.75;;;21.00;99.90;;;;;;6155430;23;20312;-72
2022/03/02 01:38:24;;;;;;;17.00;2.70;;;21.10;99.90;;;;;;6153632;23;20060;-73
2022/03/02 01:40:52;;;;;;;17.63;2.50;;;21.10;99.90;;;;;;6178360;23;20005;-73
2022/03/02 01:43:19;;;;;;;16.83;3.63;;;21.20;99.90;;;;;;6178398;23;20340;-72
2022/03/02 01:45:46;;;;;;;18.67;2.45;;;21.30;99.90;;;;;;6155168;23;20006;-73
2022/03/02 01:48:14;;;;;;;12.43;2.10;;;21.20;99.90;;;;;;6155116;23;20002;-72
2022/03/02 01:50:41;;;;;;;17.90;3.33;;;21.40;99.90;;;;;;6178147;23;20017;-72
2022/03/02 01:53:08;;;;;;;14.68;3.45;;;21.40;99.90;;;;;;6155203;23;20008;-72
2022/03/02 01:55:36;;;;;;;15.55;2.58;;;21.50;99.90;;;;;;6178320;23;20374;-71
2022/03/02 01:58:04;;;;;;;18.08;3.30;;;21.50;99.90;;;;;;6156317;23;20001;-72
2022/03/02 02:00:32;;;;;;;16.65;3.53;;;21.60;99.90;;;;;;6180118;23;20324;-71
2022/03/02 02:03:00;;;;;;;17.23;3.75;;;21.70;99.90;;;;;;6156893;23;20001;-72
2022/03/02 02:05:27;;;;;;;14.80;2.60;;;21.90;99.90;;;;;;6156930;23;20009;-73
2022/03/02 02:07:55;;;;;;;11.77;2.13;;;21.90;99.90;;;;;;6155299;23;20045;-72
2022/03/02 02:10:23;;;;;;;15.27;2.47;;;21.70;99.90;;;;;;6156905;23;20388;-72
2022/03/02 02:12:50;;;;;;;7.07;1.48;;;21.50;99.90;;;;;;6156932;23;19998;-71
2022/03/02 02:15:18;;;;;;;8.02;1.40;;;21.10;99.90;;;;;;6155084;23;20005;-71
2022/03/02 02:17:45;;;;;;;10.50;1.75;;;21.00;99.90;;;;;;6156862;23;20335;-72
2022/03/02 02:20:13;;;;;;;8.90;1.88;;;21.00;99.90;;;;;;6156550;23;20442;-72
2022/03/02 02:22:46;;;;;;;8.90;1.48;;;21.20;99.90;;;;;;6156820;23;20005;-72
2022/03/02 02:25:14;;;;;;;10.10;2.20;;;21.50;99.90;;;;;;6156863;23;20308;-72
2022/03/02 02:27:44;;;;;;;13.52;2.20;;;21.60;99.90;;;;;;6179833;23;20125;-72
2022/03/02 02:30:13;;;;;;;12.95;2.53;;;21.80;99.90;;;;;;6155042;23;20014;-72
2022/03/02 02:32:41;;;;;;;15.07;3.33;;;21.80;99.90;;;;;;6179995;23;20009;-72
2022/03/02 02:35:10;;;;;;;16.05;3.00;;;21.80;99.90;;;;;;6156731;23;20073;-71
2022/03/02 02:37:38;;;;;;;11.93;2.00;;;21.60;99.90;;;;;;6155080;23;20080;-72
2022/03/02 02:40:11;;;;;;;12.70;2.00;;;21.70;99.90;;;;;;6154953;23;20474;-71
2022/03/02 02:42:44;;;;;;;11.13;1.70;;;22.10;99.90;;;;;;6156852;23;19997;-71
2022/03/02 02:45:17;;;;;;;14.27;2.33;;;22.30;99.90;;;;;;6156703;23;20008;-72
2022/03/02 02:47:46;;;;;;;10.68;2.55;;;22.30;99.90;;;;;;6156577;23;20036;-70
2022/03/02 02:50:21;;;;;;;12.77;2.35;;;22.20;99.90;;;;;;6156276;23;20021;-70
2022/03/02 02:52:49;;;;;;;10.70;2.55;;;22.00;99.90;;;;;;6156658;23;20005;-70
2022/03/02 02:55:17;;;;;;;13.18;2.30;;;21.90;99.90;;;;;;6156584;23;20058;-70
2022/03/02 02:57:45;;;;;;;11.35;2.03;;;21.80;99.90;;;;;;6156563;23;20424;-70
2022/03/02 03:00:16;;;;;;;15.35;2.60;;;21.70;99.90;;;;;;6156483;23;20002;-69
2022/03/02 03:02:47;;;;;;;15.20;2.75;;;21.70;99.90;;;;;;6156641;23;20374;-72
2022/03/02 03:05:17;;;;;;;15.68;3.25;;;21.80;99.90;;;;;;6156610;23;20089;-72
2022/03/02 03:07:45;;;;;;;17.15;3.25;;;22.00;99.90;;;;;;6154897;23;20006;-71
2022/03/02 03:10:14;;;;;;;18.50;4.93;;;21.90;99.90;;;;;;6156080;23;20004;-74
2022/03/02 03:12:45;;;;;;;20.00;3.50;;;22.00;99.90;;;;;;6156407;23;19998;-72
2022/03/02 03:15:15;;;;;;;18.02;3.55;;;22.20;99.90;;;;;;6156537;23;20021;-72
2022/03/02 03:17:43;;;;;;;14.10;3.38;;;22.10;99.90;;;;;;6156580;23;20367;-70
2022/03/02 03:20:13;;;;;;;15.45;3.25;;;22.10;99.90;;;;;;6156502;23;20382;-72
2022/03/02 03:22:40;;;;;;;14.63;2.95;;;22.00;99.90;;;;;;6156390;23;20373;-72
2022/03/02 03:25:08;;;;;;;16.35;3.08;;;22.00;99.90;;;;;;6156489;23;20071;-71
2022/03/02 03:27:37;;;;;;;14.27;2.50;;;22.10;99.90;;;;;;6156332;23;20009;-71
2022/03/02 03:30:06;;;;;;;12.02;2.00;;;22.10;99.90;;;;;;6179496;23;20017;-71
2022/03/02 03:32:34;;;;;;;14.48;2.15;;;22.10;99.90;;;;;;6156245;23;20002;-71
2022/03/02 03:35:03;;;;;;;12.07;2.35;;;21.90;99.90;;;;;;6154634;23;20010;-72
2022/03/02 03:37:31;;;;;;;15.00;1.83;;;21.80;99.90;;;;;;6156362;23;20025;-72
2022/03/02 03:39:58;;;;;;;9.57;1.67;;;21.70;99.90;;;;;;6156323;23;20001;-71
2022/03/02 03:42:25;;;;;;;14.57;2.28;;;21.60;99.90;;;;;;6179393;23;20280;-72
2022/03/02 03:44:53;;;;;;;15.10;1.98;;;21.50;99.90;;;;;;6156171;23;20048;-72
2022/03/02 03:47:20;;;;;;;13.57;2.22;;;21.30;99.90;;;;;;6156089;23;20032;-72
2022/03/02 03:49:48;;;;;;;14.93;2.30;;;21.30;99.90;;;;;;6179076;23;20022;-71
2022/03/02 03:52:15;;;;;;;12.02;2.22;;;21.30;99.90;;;;;;6156018;23;20422;-72
2022/03/02 03:54:42;;;;;;;11.98;2.20;;;21.10;99.90;;;;;;6156141;23;20051;-73
2022/03/02 03:57:10;;;;;;;10.63;1.83;;;21.10;99.90;;;;;;6155992;23;20002;-72
2022/03/02 03:59:37;;;;;;;12.45;1.95;;;21.00;99.90;;;;;;6154427;23;20014;-73
2022/03/02 04:02:04;;;;;;;13.10;2.15;;;20.90;99.90;;;;;;6156024;23;20002;-72
2022/03/02 04:04:35;;;;;;;13.85;2.38;;;21.00;99.90;;;;;;6156075;23;20028;-73
2022/03/02 04:07:02;;;;;;;;;;;21.00;99.90;;;;;;6156377;23;20360;-72
2022/03/02 04:09:29;;;;;;;14.43;2.38;;;21.00;99.90;;;;;;6156031;23;19958;-74
2022/03/02 04:11:59;;;;;;;13.20;2.28;;;21.00;99.90;;;;;;6155923;23;20004;-76
2022/03/02 04:14:27;;;;;;;13.15;3.17;;;21.10;99.90;;;;;;6156014;23;20428;-76
2022/03/02 04:16:54;;;;;;;14.30;3.17;;;21.20;99.90;;;;;;6179072;23;20005;-76
2022/03/02 04:19:21;;;;;;;17.92;3.05;;;21.20;99.90;;;;;;6155920;23;20366;-77
2022/03/02 04:21:49;;;;;;;23.77;3.72;;;21.20;99.90;;;;;;6155881;23;20080;-77
2022/03/02 04:24:16;;;;;;;24.65;3.47;;;21.20;99.90;;;;;;6155879;23;20097;-77
2022/03/02 04:26:44;;;;;;;21.60;3.67;;;21.30;99.90;;;;;;6154174;23;20371;-76
2022/03/02 04:29:11;;;;;;;21.95;3.28;;;21.30;99.90;;;;;;6155615;23;20085;-77
2022/03/02 04:31:38;;;;;;;13.73;2.55;;;21.20;99.90;;;;;;6155758;23;20497;-76
2022/03/02 04:34:05;;;;;;;14.48;2.72;;;21.20;99.90;;;;;;6155642;23;20430;-76
2022/03/02 04:36:33;;;;;;;17.20;3.22;;;21.10;99.90;;;;;;6155742;23;19998;-76
2022/03/02 04:39:00;;;;;;;16.23;3.47;;;21.10;99.90;;;;;;6155761;23;20005;-76
2022/03/02 04:41:27;;;;;;;17.17;3.45;;;21.10;99.90;;;;;;6155669;23;20009;-75
2022/03/02 04:43:55;;;;;;;18.35;3.53;;;20.90;99.90;;;;;;6178765;23;20012;-76
2022/03/02 04:46:22;;;;;;;15.45;3.25;;;20.80;99.90;;;;;;6155628;23;20002;-76
2022/03/02 04:48:49;;;;;;;17.67;3.30;;;20.70;99.90;;;;;;6178463;23;20006;-76
2022/03/02 04:51:18;;;;;;;20.88;4.40;;;20.70;99.90;;;;;;6178608;23;20044;-76
2022/03/02 04:53:45;;;;;;;17.42;3.50;;;20.50;99.90;;;;;;6178572;23;20006;-76
2022/03/02 04:56:12;;;;;;;16.65;3.13;;;20.50;99.90;;;;;;6155630;23;19998;-77
2022/03/02 04:58:40;;;;;;;13.93;2.85;;;20.50;99.90;;;;;;6153792;23;20033;-76
2022/03/02 05:01:07;;;;;;;16.33;3.05;;;20.50;99.90;;;;;;6155476;23;19997;-76
2022/03/02 05:03:34;;;;;;;16.17;3.08;;;20.50;99.90;;;;;;6155401;23;20005;-76
2022/03/02 05:06:01;;;;;;;13.02;2.75;;;20.50;99.90;;;;;;6155507;23;20025;-76
2022/03/02 05:08:29;;;;;;;15.60;3.38;;;20.40;99.90;;;;;;6153618;23;20013;-76
2022/03/02 05:10:56;;;;;;;15.25;2.65;;;20.50;99.90;;;;;;6178633;23;20001;-77
2022/03/02 05:13:24;;;;;;;18.65;3.60;;;20.40;99.90;;;;;;6155499;23;20001;-77
2022/03/02 05:15:51;;;;;;;16.42;3.40;;;20.40;99.90;;;;;;6178650;23;20001;-77
2022/03/02 05:18:18;;;;;;;20.10;2.85;;;20.40;99.90;;;;;;6155543;23;20002;-76
2022/03/02 05:20:45;;;;;;;19.92;3.38;;;20.50;99.90;;;;;;6155366;23;20025;-76
2022/03/02 05:23:13;;;;;;;20.38;3.35;;;20.50;99.90;;;;;;6155395;23;20060;-76
2022/03/02 05:25:40;;;;;;;15.73;2.88;;;20.50;99.90;;;;;;6155361;23;20033;-76
2022/03/02 05:28:08;;;;;;;19.15;3.13;;;20.60;99.90;;;;;;6155009;23;20005;-76
2022/03/02 05:30:36;;;;;;;21.42;4.25;;;20.60;99.90;;;;;;6154920;23;20072;-75
2022/03/02 05:33:03;;;;;;;18.80;3.10;;;20.60;99.90;;;;;;6156439;23;20032;-76
2022/03/02 05:35:31;;;;;;;16.30;3.42;;;20.70;99.90;;;;;;6180386;23;20084;-76
2022/03/02 05:37:58;;;;;;;17.70;3.22;;;20.60;99.90;;;;;;6157434;23;20007;-76
2022/03/02 05:40:26;;;;;;;13.70;2.20;;;20.60;99.90;;;;;;6157411;23;20001;-76
2022/03/02 05:42:56;;;;;;;13.32;2.88;;;20.50;99.90;;;;;;6157313;23;20009;-77
2022/03/02 05:45:23;;;;;;;16.17;2.70;;;20.40;99.90;;;;;;6157271;23;20002;-76
2022/03/02 05:47:50;;;;;;;16.02;2.50;;;20.40;99.90;;;;;;6157266;23;20009;-75
2022/03/02 05:50:18;;;;;;;18.25;2.78;;;20.30;99.90;;;;;;6156942;23;20442;-76
2022/03/02 05:52:45;;;;;;;16.35;3.00;;;20.40;99.90;;;;;;6157330;23;20001;-76
2022/03/02 05:55:12;;;;;;;13.95;2.80;;;20.40;99.90;;;;;;6157184;23;20024;-75
2022/03/02 05:57:39;;;;;;;18.77;2.70;;;20.50;99.90;;;;;;6157093;23;20001;-75
2022/03/02 06:00:08;;;;;;;16.25;2.75;;;20.50;99.90;;;;;;6157089;23;20001;-75
2022/03/02 06:02:35;;;;;;;16.73;2.55;;;20.50;99.90;;;;;;6180141;23;20447;-73
2022/03/02 06:05:03;;;;;;;18.00;3.05;;;20.50;99.90;;;;;;6156805;23;20001;-76
2022/03/02 06:07:30;;;;;;;15.18;3.15;;;20.60;99.90;;;;;;6156795;23;19998;-76
2022/03/02 06:09:58;;;;;;;19.58;3.20;;;20.60;99.90;;;;;;6156808;23;20308;-74
2022/03/02 06:12:25;;;;;;;19.40;3.58;;;20.60;99.90;;;;;;6156614;23;20001;-76
2022/03/02 06:14:53;;;;;;;19.38;3.72;;;20.60;99.90;;;;;;6155103;23;20006;-76
2022/03/02 06:17:21;;;;;;;22.55;4.05;;;20.60;99.90;;;;;;6156932;23;20499;-77
2022/03/02 06:19:49;;;;;;;22.02;3.80;;;20.70;99.90;;;;;;6156943;23;20060;-76
2022/03/02 06:22:17;;;;;;;22.10;4.18;;;20.70;99.90;;;;;;6156820;23;20060;-77
2022/03/02 06:24:45;;;;;;;24.73;4.55;;;20.80;99.90;;;;;;6156788;23;20005;-78
2022/03/02 06:27:12;;;;;;;27.17;4.28;;;20.80;99.90;;;;;;6156746;23;20005;-78
2022/03/02 06:29:40;;;;;;;26.35;4.18;;;20.80;99.90;;;;;;6179777;23;20012;-78
2022/03/02 06:32:07;;;;;;;18.63;4.00;;;20.80;99.90;;;;;;6156610;23;20486;-76
2022/03/02 06:34:35;;;;;;;19.90;3.35;;;20.70;99.90;;;;;;6155046;23;20001;-77
2022/03/02 06:37:02;;;;;;;17.55;2.95;;;20.80;99.90;;;;;;6154927;23;20009;-76
2022/03/02 06:39:30;;;;;;;16.75;3.53;;;20.80;99.90;;;;;;6154566;23;20339;-76
2022/03/02 06:42:11;;;;;;;16.20;2.70;;;20.80;99.90;;;;;;6156069;23;20016;-76
2022/03/02 06:45:05;;;;;;;16.65;2.95;;;20.80;99.90;;;;;;6178225;23;20012;-76
2022/03/02 06:47:45;;;;;;;21.40;3.13;;;20.80;99.90;;;;;;6155936;23;20005;-77
2022/03/02 06:50:14;;;;;;;24.92;4.25;;;20.90;99.90;;;;;;6153882;23;20017;-76
2022/03/02 06:52:44;;;;;;;26.70;4.07;;;20.90;99.90;;;;;;6179056;23;20006;-76
2022/03/02 06:55:17;;;;;;;23.65;4.00;;;20.90;99.90;;;;;;6154124;23;20010;-75
2022/03/02 06:57:54;;;;;;;20.80;3.83;;;20.80;99.90;;;;;;6155649;23;20076;-75
2022/03/02 07:00:23;;;;;;;19.65;3.22;;;20.70;99.90;;;;;;6155919;23;20450;-77
2022/03/02 07:02:51;;;;;;;24.77;4.18;;;20.70;99.90;;;;;;6154079;23;20093;-78
2022/03/02 07:05:20;;;;;;;20.95;3.03;;;20.70;99.90;;;;;;6178690;23;20001;-78
2022/03/02 07:07:49;;;;;;;23.63;3.25;;;20.70;99.90;;;;;;6155346;23;20005;-76
2022/03/02 07:10:16;;;;;;;22.02;3.13;;;20.70;99.90;;;;;;6154882;23;19997;-76
2022/03/02 07:12:44;;;;;;;23.55;3.80;;;20.70;99.90;;;;;;6152824;23;20005;-75
2022/03/02 07:15:12;;;;;;;21.83;3.55;;;20.70;99.90;;;;;;6153137;23;20036;-75
2022/03/02 07:17:40;;;;;;;23.08;3.85;;;20.70;99.90;;;;;;6155501;23;20002;-76
2022/03/02 07:20:10;;;;;;;20.67;3.58;;;20.70;99.90;;;;;;6155887;23;20013;-76
2022/03/02 07:22:52;;;;;;;21.60;4.03;;;20.70;99.90;;;;;;6155463;23;20017;-77
2022/03/02 07:25:22;;;;;;;20.20;4.53;;;20.70;99.90;;;;;;6155571;23;20427;-76
2022/03/02 07:27:56;;;;;;;19.52;3.17;;;20.70;99.90;;;;;;6155156;23;19998;-78
2022/03/02 07:30:24;;;;;;;18.20;3.80;;;20.60;99.90;;;;;;6156392;23;20001;-78
2022/03/02 07:32:56;;;;;;;23.33;4.03;;;20.60;99.90;;;;;;6156124;23;20486;-79
2022/03/02 07:35:25;;;;;;;27.30;4.47;;;20.60;99.90;;;;;;6156214;23;19998;-77
2022/03/02 07:37:56;;;;;;;22.42;4.47;;;20.60;99.90;;;;;;6154466;23;20065;-77
2022/03/02 07:40:24;;;;;;;22.27;3.70;;;20.50;99.90;;;;;;6179238;23;20010;-77
2022/03/02 07:42:52;;;;;;;22.70;3.53;;;20.50;99.90;;;;;;6154321;23;20009;-78
2022/03/02 07:45:21;;;;;;;14.18;1.88;;;20.40;99.90;;;;;;6155932;23;20076;-76
2022/03/02 07:47:48;;;;;;;12.70;2.22;;;20.30;99.90;;;;;;6155873;23;20025;-78
2022/03/02 07:50:16;;;;;;;10.65;1.77;;;20.20;99.90;;;;;;6155797;23;20014;-77
2022/03/02 07:52:51;;;;;;;8.98;1.83;;;20.10;99.90;;;;;;6155997;23;19998;-79
2022/03/02 07:55:20;;;;;;;13.00;2.58;;;20.00;99.90;;;;;;6154070;23;20005;-76
2022/03/02 07:57:55;;;;;;;13.52;2.53;;;20.00;99.90;;;;;;6155893;23;20013;-75
2022/03/02 08:00:23;;;;;;;14.93;2.40;;;20.00;99.90;;;;;;6156231;23;20002;-74
2022/03/02 08:02:54;;;;;;;18.02;2.63;;;20.00;99.90;;;;;;6155673;23;20002;-75
2022/03/02 08:05:23;;;;;;;16.10;2.58;;;20.10;99.90;;;;;;6178895;23;20006;-76
2022/03/02 08:07:51;;;;;;;19.27;2.80;;;20.10;99.90;;;;;;6155669;23;20076;-76
2022/03/02 08:10:19;;;;;;;18.98;2.85;;;20.20;99.90;;;;;;6155780;23;20025;-77
2022/03/02 08:12:46;;;;;;;14.60;1.70;;;20.20;99.90;;;;;;6155748;23;20046;-76
2022/03/02 08:15:14;;;;;;;9.40;1.75;;;20.10;99.90;;;;;;6155742;23;19997;-76
2022/03/02 08:17:44;;;;;;;14.98;2.85;;;20.10;99.90;;;;;;6155877;23;20005;-78
2022/03/02 08:20:12;;;;;;;10.73;2.23;;;20.00;99.90;;;;;;6154067;23;20012;-79
2022/03/02 08:22:44;;;;;;;8.68;1.67;;;20.10;99.90;;;;;;6178858;23;20028;-77
2022/03/02 08:25:12;;;;;;;12.75;2.42;;;20.00;99.90;;;;;;6178783;23;20002;-76
2022/03/02 08:27:43;;;;;;;15.23;2.58;;;20.00;99.90;;;;;;6154152;23;20005;-76
2022/03/02 08:30:12;;;;;;;17.40;2.47;;;19.90;99.90;;;;;;6155739;23;20029;-77
2022/03/02 08:32:48;;;;;;;22.00;3.58;;;19.80;99.90;;;;;;6155589;23;20005;-74
2022/03/02 08:35:16;;;;;;;15.23;3.45;;;19.80;99.90;;;;;;6153748;23;20034;-76
2022/03/02 08:37:43;;;;;;;18.58;3.20;;;19.80;99.90;;;;;;6178573;23;20025;-74
2022/03/02 08:40:12;;;;;;;21.23;3.40;;;19.80;99.90;;;;;;6155388;23;20004;-74
2022/03/02 08:42:40;;;;;;;26.05;3.80;;;19.90;99.90;;;;;;6155529;23;20075;-74
2022/03/02 08:45:09;;;;;;;28.90;4.82;;;19.90;99.90;;;;;;6155533;23;20052;-75
2022/03/02 08:47:36;;;;;;;28.77;5.65;;;19.90;99.90;;;;;;6155459;23;20423;-76
2022/03/02 08:50:06;;;;;;;30.98;5.38;;;19.90;99.90;;;;;;6155258;23;20518;-75
2022/03/02 08:52:35;;;;;;;25.60;5.00;;;19.90;99.90;;;;;;6153848;23;20001;-74
2022/03/02 08:55:08;;;;;;;18.83;2.97;;;19.80;99.90;;;;;;6155507;23;20048;-75
2022/03/02 08:57:40;;;;;;;20.08;3.15;;;19.70;99.90;;;;;;6155582;23;19998;-76
2022/03/02 09:00:08;;;;;;;17.40;2.28;;;19.70;99.90;;;;;;6153847;23;20079;-75
2022/03/02 09:02:40;;;;;;;19.73;2.55;;;19.60;99.90;;;;;;6155455;23;20025;-74
2022/03/02 09:05:08;;;;;;;23.52;3.28;;;19.60;99.90;;;;;;6178727;23;20005;-79
2022/03/02 09:07:36;;;;;;;30.23;3.53;;;19.60;99.90;;;;;;6153376;23;20427;-76
2022/03/02 09:10:05;;;;;;;29.90;3.88;;;19.70;99.90;;;;;;6155492;23;20001;-75
2022/03/02 09:12:33;;;;;;;23.55;3.60;;;19.70;99.90;;;;;;6153767;23;20005;-77
2022/03/02 09:15:01;;;;;;;26.67;4.00;;;19.80;99.90;;;;;;6155323;23;20002;-77
2022/03/02 09:17:28;;;;;;;30.45;4.30;;;19.80;99.90;;;;;;6153911;23;20060;-76
2022/03/02 09:19:57;;;;;;;23.63;4.18;;;19.90;99.90;;;;;;6178653;23;20130;-77
2022/03/02 09:22:27;;;;;;;37.83;5.35;;;20.00;99.90;;;;;;6178647;23;20009;-78
2022/03/02 09:24:55;;;;;;;29.93;4.93;;;20.00;99.90;;;;;;6178479;23;20009;-76
2022/03/02 09:27:27;;;;;;;27.58;4.15;;;20.10;99.90;;;;;;6153625;23;20322;-75
2022/03/02 09:29:58;;;;;;;25.60;3.55;;;20.10;99.90;;;;;;6153607;23;20044;-76
2022/03/02 09:32:27;;;;;;;32.38;4.32;;;20.00;99.90;;;;;;6153733;23;20002;-77
2022/03/02 09:34:59;;;;;;;26.73;4.00;;;20.10;99.90;;;;;;6153524;23;20029;-78
2022/03/02 09:37:28;;;;;;;31.48;4.13;;;20.10;99.90;;;;;;6178435;23;20001;-76
2022/03/02 09:39:56;;;;;;;22.80;3.67;;;20.10;99.90;;;;;;6178517;23;20079;-75
2022/03/02 09:42:31;;;;;;;32.78;4.60;;;20.10;99.90;;;;;;6155237;23;20029;-76
2022/03/02 09:45:07;;;;;;;26.23;4.32;;;20.10;99.90;;;;;;6153769;23;20421;-75
2022/03/02 09:47:46;;;;;;;28.00;4.95;;;20.10;99.90;;;;;;6155320;23;20060;-75
2022/03/02 09:50:17;;;;;;;31.70;4.60;;;20.10;99.90;;;;;;6154967;23;20009;-76
2022/03/02 09:52:47;;;;;;;27.20;4.40;;;20.10;99.90;;;;;;6155303;23;20001;-75
2022/03/02 09:55:21;;;;;;;33.83;4.97;;;20.10;99.90;;;;;;6155338;23;20002;-75
2022/03/02 09:57:52;;;;;;;26.33;5.68;;;20.20;99.90;;;;;;6155400;23;20276;-75
2022/03/02 10:00:22;;;;;;;27.45;4.63;;;20.20;99.90;;;;;;6155250;23;20008;-75
2022/03/02 10:02:55;;;;;;;20.90;3.83;;;20.10;99.90;;;;;;6178543;23;20343;-78
2022/03/02 10:05:28;;;;;;;22.20;4.15;;;20.10;99.90;;;;;;6155309;23;20048;-77
2022/03/02 10:08:07;;;;;;;25.88;4.65;;;20.00;99.90;;;;;;6153566;23;20006;-75
2022/03/02 10:10:40;;;;;;;27.50;5.18;;;20.10;99.90;;;;;;6153578;23;20009;-76
2022/03/02 10:13:10;;;;;;;27.90;5.30;;;20.10;99.90;;;;;;6155216;23;20002;-76
2022/03/02 10:15:39;;;;;;;27.85;5.82;;;20.10;99.90;;;;;;6153585;23;20012;-77
2022/03/02 10:18:11;;;;;;;31.92;5.65;;;20.20;99.90;;;;;;6153897;23;20431;-78
2022/03/02 10:20:41;;;;;;;29.92;5.32;;;20.20;99.90;;;;;;6179992;23;20036;-74
2022/03/02 10:23:26;;;;;;;;;;;20.10;99.90;;;;;;6155828;23;20009;-76
2022/03/02 10:26:06;;;;;;;36.13;5.22;;;20.00;99.90;;;;;;6155223;23;19905;-75
2022/03/02 10:28:44;;;;;;;40.80;5.70;;;19.90;99.90;;;;;;6180069;23;20009;-77
2022/03/02 10:31:25;;;;;;;41.53;6.15;;;19.90;99.90;;;;;;6157055;23;20002;-75
2022/03/02 10:34:01;;;;;;;34.42;5.78;;;19.90;99.90;;;;;;6156943;23;20009;-75
2022/03/02 10:36:30;;;;;;;44.88;6.50;;;19.90;99.90;;;;;;6156928;23;20024;-76
2022/03/02 10:39:01;;;;;;;39.17;5.57;;;19.90;99.90;;;;;;6155078;23;20040;-76
2022/03/02 10:41:33;;;;;;;31.25;5.15;;;19.90;99.90;;;;;;6156837;23;20072;-76
2022/03/02 10:44:05;;;;;;;30.95;5.32;;;19.90;99.90;;;;;;6155206;23;20009;-75
2022/03/02 10:46:34;;;;;;;31.90;5.57;;;19.90;99.90;;;;;;6155146;23;20014;-75
2022/03/02 10:49:22;;;;;;;29.95;4.50;;;19.90;99.90;;;;;;6156597;23;20383;-74
2022/03/02 10:51:49;;;;;;;22.33;4.28;;;19.80;99.90;;;;;;6155141;23;20498;-76
2022/03/02 10:54:23;;;;;;;27.73;4.38;;;19.80;99.90;;;;;;6156664;23;20072;-75
2022/03/02 10:56:55;;;;;;;24.08;3.88;;;19.80;99.90;;;;;;6156707;23;20335;-75
2022/03/02 10:59:25;;;;;;;22.20;3.63;;;19.80;99.90;;;;;;6156654;23;20489;-75
2022/03/02 11:01:54;;;;;;;25.83;4.28;;;19.80;99.90;;;;;;6156678;23;20005;-75
2022/03/02 11:04:23;;;;;;;20.80;3.90;;;19.80;99.90;;;;;;6156576;23;20331;-76
2022/03/02 11:06:53;;;;;;;23.77;4.45;;;19.80;99.90;;;;;;6156460;23;20001;-77
2022/03/02 11:09:25;;;;;;;29.65;5.32;;;19.80;99.90;;;;;;6156437;23;20334;-75
2022/03/02 11:11:54;;;;;;;29.42;5.10;;;19.90;99.90;;;;;;6156577;23;20080;-75
2022/03/02 11:14:22;;;;;;;24.60;4.30;;;20.00;99.90;;;;;;6154898;23;20002;-75
2022/03/02 11:16:50;;;;;;;26.50;5.13;;;20.00;99.90;;;;;;6156424;23;20024;-76
2022/03/02 11:19:19;;;;;;;28.05;5.32;;;20.10;99.90;;;;;;6179653;23;20435;-76
2022/03/02 11:21:50;;;;;;;31.00;4.53;;;20.10;99.90;;;;;;6156466;23;20001;-77
2022/03/02 11:24:20;;;;;;;28.38;4.97;;;20.10;99.90;;;;;;6156392;23;20009;-78
2022/03/02 11:26:48;;;;;;;30.20;5.30;;;20.20;99.90;;;;;;6154658;23;20013;-75
2022/03/02 11:29:18;;;;;;;24.00;4.60;;;20.30;99.90;;;;;;6154382;23;20039;-75
2022/03/02 11:31:51;;;;;;;28.20;4.57;;;20.30;99.90;;;;;;6156116;23;19997;-76
2022/03/02 11:34:30;;;;;;;27.33;4.85;;;20.30;99.90;;;;;;6156139;23;20029;-76
2022/03/02 11:37:08;;;;;;;26.20;4.32;;;20.30;99.90;;;;;;6156260;23;20012;-77
2022/03/02 11:39:43;;;;;;;30.83;4.85;;;20.30;99.90;;;;;;6154592;23;20112;-76
2022/03/02 11:42:11;;;;;;;28.80;4.97;;;20.20;99.90;;;;;;6154544;23;20006;-76
2022/03/02 11:44:41;;;;;;;29.30;5.03;;;20.20;99.90;;;;;;6156169;23;20308;-76
2022/03/02 11:47:09;;;;;;;;;;;20.20;99.90;;;;;;6156642;23;20009;-75
2022/03/02 11:49:46;;;;;;;31.70;5.57;;;20.10;99.90;;;;;;6155684;23;19916;-77
2022/03/02 11:52:25;;;;;;;33.33;5.28;;;20.20;99.90;;;;;;6156244;23;20001;-76
2022/03/02 11:54:56;;;;;;;31.25;5.53;;;20.20;99.90;;;;;;6156136;23;20004;-76
2022/03/02 11:57:26;;;;;;;27.23;5.63;;;20.10;99.90;;;;;;6179386;23;20441;-76
2022/03/02 12:00:15;;;;;;;28.23;5.32;;;20.10;99.90;;;;;;6156102;23;20016;-76
2022/03/02 12:02:46;;;;;;;25.83;4.95;;;20.10;99.90;;;;;;6179259;23;20009;-76
2022/03/02 12:05:16;;;;;;;33.28;5.47;;;20.00;99.90;;;;;;6156104;23;20332;-76
2022/03/02 12:07:50;;;;;;;24.73;4.40;;;20.00;99.90;;;;;;6179068;23;20088;-76
2022/03/02 12:10:29;;;;;;;34.70;5.50;;;20.00;99.90;;;;;;6155874;23;20028;-76
2022/03/02 12:12:58;;;;;;;30.85;5.55;;;20.10;99.90;;;;;;6155956;23;20440;-76
2022/03/02 12:15:27;;;;;;;38.90;6.20;;;20.10;99.90;;;;;;6155874;23;20341;-76
2022/03/02 12:18:09;;;;;;;38.15;6.35;;;20.20;99.90;;;;;;6155893;23;20005;-76
2022/03/02 12:20:48;;;;;;;36.95;6.00;;;20.30;99.90;;;;;;6155910;23;20001;-76
2022/03/02 12:23:22;;;;;;;31.17;5.47;;;20.30;99.90;;;;;;6155954;23;20007;-75
2022/03/02 12:25:50;;;;;;;33.10;5.72;;;20.30;99.90;;;;;;6155781;23;20005;-75
2022/03/02 12:28:19;;;;;;;30.38;6.00;;;20.30;99.90;;;;;;6154016;23;20387;-76
2022/03/02 12:30:46;;;;;;;31.13;5.35;;;20.30;99.90;;;;;;6154022;23;20033;-76
2022/03/02 12:33:17;;;;;;;35.88;6.13;;;20.30;99.90;;;;;;6155810;23;20004;-76
2022/03/02 12:35:44;;;;;;;35.90;6.53;;;20.30;99.90;;;;;;6155753;23;20001;-76
2022/03/02 12:38:13;;;;;;;43.22;7.05;;;20.40;99.90;;;;;;6178849;23;20343;-76
2022/03/02 12:40:41;;;;;;;32.92;6.10;;;20.40;99.90;;;;;;6155570;23;20002;-75
2022/03/02 12:43:13;;;;;;;32.50;5.63;;;20.40;99.90;;;;;;6178410;23;20013;-76
2022/03/02 12:45:50;;;;;;;28.10;5.75;;;20.40;99.90;;;;;;6155682;23;20029;-75
2022/03/02 12:48:20;;;;;;;32.83;5.78;;;20.50;99.90;;;;;;6155443;23;20431;-76